Time;durP1;ratioP1;P1;durP2;ratioP2;P2;SDS_P1;SDS_P2;PMS_P1;PMS_P2;Temp;Humidity;BMP_temperature;BMP_pressure;BME280_temperature;BME280_humidity;BME280_pressure;Samples;Min_cycle;Max_cycle;Signal;HPM_P1;HPM_P2
2022/02/24 00:00:31;;;;;;;10.80;3.10;;;;;;;0.29;77.41;101203.38;89144;1281;89039;-65
2022/02/24 00:02:48;;;;;;;11.60;3.80;;;;;;;0.25;77.54;101204.16;89123;1281;91861;-65
2022/02/24 00:04:57;;;;;;;12.30;3.10;;;;;;;0.24;77.58;101205.00;89114;1280;79380;-65
2022/02/24 00:07:05;;;;;;;10.90;4.00;;;;;;;0.23;77.70;101208.44;89141;1281;79714;-65
2022/02/24 00:09:11;;;;;;;10.80;4.30;;;;;;;0.20;77.63;101206.86;89121;1281;98636;-64
2022/02/24 00:11:17;;;;;;;11.10;3.70;;;;;;;0.15;77.70;101206.15;89131;1281;88925;-64
2022/02/24 00:13:22;;;;;;;15.10;3.90;;;;;;;0.11;77.74;101206.75;89129;1280;94489;-64
2022/02/24 00:15:36;;;;;;;9.40;3.40;;;;;;;0.07;77.80;101207.23;89136;1281;79071;-66
2022/02/24 00:17:47;;;;;;;12.40;3.50;;;;;;;0.01;77.72;101204.41;89144;1281;81889;-67
2022/02/24 00:19:53;;;;;;;12.30;3.30;;;;;;;-0.11;77.96;101204.88;89113;1281;100121;-64
2022/02/24 00:21:59;;;;;;;8.90;3.50;;;;;;;-0.17;78.03;101209.31;89147;1281;89190;-76
2022/02/24 00:24:07;;;;;;;12.60;3.20;;;;;;;-0.20;78.25;101201.42;89128;1281;93049;-76
2022/02/24 00:26:13;;;;;;;15.80;3.60;;;;;;;-0.25;78.31;101204.23;89117;1280;80893;-76
2022/02/24 00:28:19;;;;;;;16.50;4.20;;;;;;;-0.30;78.48;101198.36;89144;1281;79740;-77
2022/02/24 00:30:27;;;;;;;14.00;3.80;;;;;;;-0.31;78.44;101194.36;89122;1281;99507;-77
2022/02/24 00:32:36;;;;;;;16.90;4.00;;;;;;;-0.29;78.37;101201.64;89137;1280;89295;-78
2022/02/24 00:34:42;;;;;;;10.00;3.60;;;;;;;-0.25;78.72;101202.80;89025;1282;95776;-76
2022/02/24 00:36:48;;;;;;;12.10;3.80;;;;;;;-0.22;78.65;101202.77;89104;1281;79703;-77
2022/02/24 00:38:56;;;;;;;11.40;4.50;;;;;;;-0.18;78.79;101198.42;89117;1281;81194;-76
2022/02/24 00:41:05;;;;;;;11.60;4.10;;;;;;;-0.16;78.93;101200.80;89122;1281;100000;-77
2022/02/24 00:43:11;;;;;;;16.10;4.90;;;;;;;-0.16;78.94;101199.88;89078;1282;87452;-64
2022/02/24 00:45:19;;;;;;;15.60;5.10;;;;;;;-0.11;78.94;101202.97;88948;1284;93929;-64
2022/02/24 00:47:25;;;;;;;17.40;5.40;;;;;;;-0.08;79.00;101199.14;89127;1281;80951;-64
2022/02/24 00:49:31;;;;;;;15.10;5.30;;;;;;;-0.08;79.09;101197.90;89133;1281;81341;-64
2022/02/24 00:51:37;;;;;;;18.20;6.10;;;;;;;-0.04;79.12;101198.53;89127;1281;99515;-64
2022/02/24 00:53:45;;;;;;;17.40;6.50;;;;;;;0.01;79.22;101197.14;89148;1281;89450;-64
2022/02/24 00:55:51;;;;;;;19.80;7.90;;;;;;;0.06;79.36;101197.34;89119;1281;95501;-64
2022/02/24 00:57:59;;;;;;;20.40;6.70;;;;;;;0.10;79.40;101196.22;89076;1281;80560;-64
2022/02/24 01:00:08;;;;;;;19.10;7.50;;;;;;;0.09;79.39;101198.05;89130;1280;83205;-66
2022/02/24 01:02:13;;;;;;;19.00;7.00;;;;;;;0.06;79.30;101198.23;89131;1281;98218;-78
2022/02/24 01:04:19;;;;;;;25.00;7.90;;;;;;;0.04;79.38;101195.69;89140;1280;88021;-76
2022/02/24 01:06:25;;;;;;;22.10;8.20;;;;;;;0.03;79.45;101192.26;89111;1279;95209;-77
2022/02/24 01:08:32;;;;;;;20.50;7.90;;;;;;;0.04;79.46;101197.48;89074;1281;80875;-78
2022/02/24 01:10:37;;;;;;;22.60;7.80;;;;;;;0.06;79.62;101195.77;89132;1281;81833;-78
2022/02/24 01:12:43;;;;;;;21.50;7.50;;;;;;;0.10;79.66;101202.94;89130;1280;98101;-77
2022/02/24 01:14:51;;;;;;;17.00;7.30;;;;;;;0.09;79.66;101200.19;89219;1280;88533;-77
2022/02/24 01:16:57;;;;;;;22.10;10.10;;;;;;;0.07;79.63;101199.73;89303;1280;94370;-64
2022/02/24 01:19:06;;;;;;;26.90;9.60;;;;;;;0.07;79.70;101204.01;89308;1281;80973;-65
2022/02/24 01:21:12;;;;;;;23.10;8.80;;;;;;;0.11;79.86;101201.43;89299;1281;86537;-65
2022/02/24 01:23:21;;;;;;;27.20;10.10;;;;;;;0.10;79.79;101203.83;89299;1281;100626;-64
2022/02/24 01:25:32;;;;;;;21.40;9.10;;;;;;;0.13;80.05;101203.98;89300;1281;87858;-64
2022/02/24 01:27:37;;;;;;;23.60;9.60;;;;;;;0.15;80.09;101203.11;89284;1281;95967;-78
2022/02/24 01:29:43;;;;;;;23.10;9.70;;;;;;;0.16;80.12;101203.89;89293;1281;79690;-77
2022/02/24 01:31:52;;;;;;;25.40;9.20;;;;;;;0.13;80.07;101206.09;89337;1280;81628;-77
2022/02/24 01:33:57;;;;;;;22.10;9.70;;;;;;;0.11;80.10;101207.30;89304;1281;99268;-65
2022/02/24 01:36:03;;;;;;;27.30;9.80;;;;;;;0.09;80.22;101206.52;89277;1280;88843;-66
2022/02/24 01:38:09;;;;;;;23.10;9.00;;;;;;;0.12;80.34;101210.92;89102;1281;95670;-66
2022/02/24 01:40:17;;;;;;;30.70;9.80;;;;;;;0.14;80.38;101212.61;89190;1280;80452;-65
2022/02/24 01:42:22;;;;;;;23.70;9.90;;;;;;;0.15;80.34;101213.58;89315;1281;82906;-77
2022/02/24 01:44:41;;;;;;;24.90;10.30;;;;;;;0.13;80.48;101211.89;89289;1281;98186;-77
2022/02/24 01:46:49;;;;;;;24.70;10.10;;;;;;;0.14;80.50;101209.35;89298;1281;88374;-76
2022/02/24 01:48:55;;;;;;;28.50;11.10;;;;;;;0.14;80.51;101210.29;89292;1281;95355;-64
2022/02/24 01:51:00;;;;;;;25.30;9.90;;;;;;;0.17;80.55;101214.14;89285;1280;80401;-64
2022/02/24 01:53:07;;;;;;;26.10;12.10;;;;;;;0.17;80.61;101212.70;89324;1281;81728;-65
2022/02/24 01:55:12;;;;;;;29.20;11.60;;;;;;;0.13;80.49;101210.88;89288;1281;99119;-64
2022/02/24 01:57:18;;;;;;;30.10;10.20;;;;;;;0.14;80.74;101205.14;89316;1280;87745;-64
2022/02/24 01:59:24;;;;;;;24.00;9.90;;;;;;;0.11;80.62;101199.86;89307;1281;94805;-64
2022/02/24 02:01:32;;;;;;;26.30;10.00;;;;;;;0.07;80.63;101203.11;89315;1281;81952;-64
2022/02/24 02:03:44;;;;;;;27.30;11.00;;;;;;;0.05;80.62;101201.84;89318;1280;81845;-66
2022/02/24 02:05:53;;;;;;;29.20;10.90;;;;;;;0.05;80.74;101202.02;89305;1280;99302;-65
2022/02/24 02:07:58;;;;;;;19.70;9.30;;;;;;;0.02;80.74;101202.79;89164;1280;87554;-78
2022/02/24 02:10:06;;;;;;;29.90;10.40;;;;;;;-0.03;80.73;101203.63;89147;1281;94230;-78
2022/02/24 02:12:11;;;;;;;25.40;10.90;;;;;;;-0.01;80.95;101207.20;88910;1283;80203;-77
2022/02/24 02:14:17;;;;;;;23.70;10.30;;;;;;;-0.01;80.75;101206.84;89162;1281;82788;-78
2022/02/24 02:16:23;;;;;;;29.30;10.30;;;;;;;-0.02;80.66;101207.80;89136;1281;100142;-77
2022/02/24 02:18:32;;;;;;;22.70;9.80;;;;;;;-0.07;80.69;101205.45;89164;1281;89719;-65
2022/02/24 02:20:40;;;;;;;28.10;10.70;;;;;;;-0.12;80.80;101203.52;89153;1281;96032;-65
2022/02/24 02:22:46;;;;;;;23.00;10.30;;;;;;;-0.16;80.91;101201.83;89129;1280;79973;-65
2022/02/24 02:25:03;;;;;;;26.50;9.90;;;;;;;-0.19;80.89;101195.64;89000;1282;82463;-65
2022/02/24 02:27:11;;;;;;;29.00;10.20;;;;;;;-0.20;80.86;101194.35;88947;1282;98489;-78
2022/02/24 02:29:17;;;;;;;24.70;11.20;;;;;;;-0.21;80.84;101193.84;88946;1282;89632;-76
2022/02/24 02:31:23;;;;;;;23.10;9.60;;;;;;;-0.27;80.72;101194.08;88911;1282;92603;-77
2022/02/24 02:33:28;;;;;;;27.30;9.50;;;;;;;-0.31;80.92;101195.92;88934;1282;78966;-75
2022/02/24 02:35:38;;;;;;;26.10;9.90;;;;;;;-0.36;80.78;101193.95;88938;1282;82727;-75
2022/02/24 02:37:43;;;;;;;19.30;9.50;;;;;;;-0.42;80.81;101195.05;88944;1282;98382;-76
2022/02/24 02:39:52;;;;;;;24.80;9.30;;;;;;;-0.47;80.95;101193.45;88942;1282;87785;-76
2022/02/24 02:41:57;;;;;;;25.10;9.60;;;;;;;-0.49;80.90;101190.23;88934;1282;94571;-75
2022/02/24 02:44:04;;;;;;;22.50;8.80;;;;;;;-0.52;80.75;101186.89;88939;1282;80720;-76
2022/02/24 02:46:10;;;;;;;21.50;8.90;;;;;;;-0.56;80.81;101187.16;88940;1282;83311;-76
2022/02/24 02:48:19;;;;;;;19.80;8.90;;;;;;;-0.60;81.09;101189.14;88932;1282;99435;-65
2022/02/24 02:50:24;;;;;;;31.30;10.00;;;;;;;-0.62;81.00;101191.92;88947;1282;88253;-65
2022/02/24 02:52:30;;;;;;;25.50;9.00;;;;;;;-0.67;80.95;101194.97;88921;1282;93018;-66
2022/02/24 02:54:36;;;;;;;20.50;8.50;;;;;;;-0.74;80.86;101194.33;88919;1282;80427;-66
2022/02/24 02:56:47;;;;;;;20.80;8.80;;;;;;;-0.77;81.07;101191.19;88958;1282;82190;-65
2022/02/24 02:58:56;;;;;;;20.30;9.10;;;;;;;-0.82;81.01;101189.17;88941;1280;99674;-78
2022/02/24 03:01:01;;;;;;;24.40;9.60;;;;;;;-0.88;81.11;101183.94;88964;1281;88775;-77
2022/02/24 03:03:07;;;;;;;26.00;9.30;;;;;;;-0.89;81.04;101184.54;88965;1282;94598;-65
2022/02/24 03:05:13;;;;;;;18.40;9.00;;;;;;;-0.92;81.17;101178.88;88970;1281;81242;-66
2022/02/24 03:07:19;;;;;;;25.70;9.10;;;;;;;-0.93;81.30;101181.22;88971;1282;80940;-75
2022/02/24 03:09:24;;;;;;;24.80;9.60;;;;;;;-0.94;81.26;101181.48;88964;1281;98860;-76
2022/02/24 03:11:35;;;;;;;24.90;9.30;;;;;;;-0.97;81.39;101183.61;88896;1282;88388;-76
2022/02/24 03:13:41;;;;;;;22.00;8.70;;;;;;;-1.02;81.17;101180.23;88960;1282;94714;-65
2022/02/24 03:15:47;;;;;;;23.40;9.40;;;;;;;-1.08;81.34;101183.80;88913;1284;79504;-65
2022/02/24 03:17:53;;;;;;;26.60;9.60;;;;;;;-1.11;81.37;101188.25;88958;1282;83373;-68
2022/02/24 03:19:59;;;;;;;22.10;9.20;;;;;;;-1.14;81.58;101184.20;88943;1282;98769;-65
2022/02/24 03:22:08;;;;;;;25.60;9.30;;;;;;;-1.17;81.70;101186.85;88970;1282;88513;-76
2022/02/24 03:24:14;;;;;;;20.00;9.20;;;;;;;-1.18;81.30;101179.68;88884;1283;95614;-75
2022/02/24 03:26:19;;;;;;;22.40;8.70;;;;;;;-1.20;81.70;101178.37;88913;1282;79700;-76
2022/02/24 03:28:25;;;;;;;20.60;8.20;;;;;;;-1.26;81.66;101173.94;88943;1282;80521;-76
2022/02/24 03:30:34;;;;;;;22.40;9.20;;;;;;;-1.28;81.68;101171.44;88945;1282;100908;-76
2022/02/24 03:32:43;;;;;;;25.20;9.40;;;;;;;-1.33;81.57;101173.90;88669;1286;88642;-66
2022/02/24 03:34:49;;;;;;;25.00;9.10;;;;;;;-1.36;81.87;101172.66;88936;1282;95415;-65
2022/02/24 03:36:55;;;;;;;20.50;8.50;;;;;;;-1.34;81.77;101171.67;88714;1282;280446;-66
2022/02/24 03:39:00;;;;;;;21.20;8.60;;;;;;;-1.32;81.91;101169.41;88957;1282;80783;-65
2022/02/24 03:41:09;;;;;;;20.70;9.20;;;;;;;-1.31;81.82;101168.10;88938;1282;100429;-65
2022/02/24 03:43:15;;;;;;;22.10;9.30;;;;;;;-1.32;81.88;101175.25;88911;1283;89068;-76
2022/02/24 03:45:21;;;;;;;21.10;8.60;;;;;;;-1.32;82.11;101174.19;88934;1282;94327;-76
2022/02/24 03:47:27;;;;;;;21.10;9.10;;;;;;;-1.33;82.03;101176.53;88934;1282;80825;-75
2022/02/24 03:49:33;;;;;;;22.80;9.00;;;;;;;-1.38;81.91;101172.25;88932;1282;83171;-75
2022/02/24 03:51:39;;;;;;;22.30;9.00;;;;;;;-1.33;82.07;101178.30;88935;1282;99595;-74
2022/02/24 03:53:45;;;;;;;21.10;9.70;;;;;;;-1.35;82.27;101180.88;88938;1282;89538;-75
2022/02/24 03:55:50;;;;;;;19.50;9.10;;;;;;;-1.35;82.10;101175.47;88911;1282;93746;-74
2022/02/24 03:57:56;;;;;;;26.00;8.90;;;;;;;-1.34;82.34;101176.94;88927;1282;81504;-75
2022/02/24 04:00:03;;;;;;;19.60;9.20;;;;;;;-1.34;82.32;101177.45;88900;1283;79705;-75
2022/02/24 04:02:10;;;;;;;22.10;8.90;;;;;;;-1.34;82.16;101177.52;88923;1282;99678;-74
2022/02/24 04:04:16;;;;;;;24.50;9.40;;;;;;;-1.35;82.41;101174.58;88916;1282;86650;-75
2022/02/24 04:06:22;;;;;;;22.80;8.80;;;;;;;-1.38;82.33;101181.42;88923;1282;95081;-76
2022/02/24 04:08:31;;;;;;;21.80;8.90;;;;;;;-1.42;82.22;101174.44;88917;1282;81886;-65
2022/02/24 04:10:36;;;;;;;20.40;8.80;;;;;;;-1.46;82.39;101175.08;88922;1282;82705;-65
2022/02/24 04:12:46;;;;;;;22.30;9.10;;;;;;;-1.48;82.34;101175.88;88938;1282;97938;-75
2022/02/24 04:14:55;;;;;;;23.00;8.60;;;;;;;-1.51;82.39;101178.71;88943;1282;88595;-75
2022/02/24 04:17:00;;;;;;;26.30;9.00;;;;;;;-1.48;82.33;101172.16;88914;1282;95152;-66
2022/02/24 04:19:09;;;;;;;20.80;8.00;;;;;;;-1.46;82.47;101169.05;88914;1282;79179;-66
2022/02/24 04:21:19;;;;;;;22.80;9.40;;;;;;;-1.46;82.10;101162.89;88951;1282;81867;-65
2022/02/24 04:23:29;;;;;;;31.30;10.30;;;;;;;-1.49;82.41;101168.88;88830;1284;98625;-75
2022/02/24 04:25:38;;;;;;;22.60;10.20;;;;;;;-1.47;82.58;101170.19;88893;1284;88143;-75
2022/02/24 04:27:54;;;;;;;23.90;8.90;;;;;;;-1.44;82.47;101170.19;88937;1282;94225;-76
2022/02/24 04:30:00;;;;;;;21.40;9.10;;;;;;;-1.44;82.72;101171.40;88929;1282;81604;-77
2022/02/24 04:32:07;;;;;;;25.20;9.80;;;;;;;-1.43;82.63;101173.42;88936;1282;82288;-65
2022/02/24 04:34:16;;;;;;;27.80;9.10;;;;;;;-1.43;82.56;101173.27;88932;1281;98568;-65
2022/02/24 04:36:25;;;;;;;20.70;9.00;;;;;;;-1.46;82.66;101170.14;88947;1282;88262;-65
2022/02/24 04:38:30;;;;;;;30.00;9.60;;;;;;;-1.49;82.70;101167.99;88924;1282;95670;-65
2022/02/24 04:40:36;;;;;;;20.50;8.30;;;;;;;-1.48;82.74;101167.94;88919;1282;77709;-66
2022/02/24 04:42:46;;;;;;;25.90;9.60;;;;;;;-1.46;82.70;101163.95;88955;1282;83137;-75
2022/02/24 04:44:51;;;;;;;21.20;8.50;;;;;;;-1.49;82.84;101162.02;88918;1282;100034;-75
2022/02/24 04:47:00;;;;;;;24.90;9.20;;;;;;;-1.49;82.60;101162.70;88936;1282;89673;-76
2022/02/24 04:49:05;;;;;;;20.40;8.70;;;;;;;-1.50;82.60;101164.91;88926;1282;96054;-75
2022/02/24 04:51:11;;;;;;;24.00;9.30;;;;;;;-1.53;82.79;101160.86;88927;1282;80756;-77
2022/02/24 04:53:17;;;;;;;21.10;8.50;;;;;;;-1.58;82.70;101159.37;88937;1282;80417;-65
2022/02/24 04:55:23;;;;;;;22.70;8.40;;;;;;;-1.60;82.98;101157.73;88921;1282;99455;-65
2022/02/24 04:57:28;;;;;;;21.80;9.40;;;;;;;-1.61;82.90;101160.98;88930;1282;88174;-65
2022/02/24 04:59:34;;;;;;;20.80;8.60;;;;;;;-1.61;82.87;101159.90;88865;1284;95453;-66
2022/02/24 05:01:40;;;;;;;23.50;9.00;;;;;;;-1.58;82.91;101155.53;88911;1282;78310;-65
2022/02/24 05:03:46;;;;;;;25.80;9.10;;;;;;;-1.61;82.75;101153.40;88936;1281;82132;-65
2022/02/24 05:05:54;;;;;;;20.70;9.50;;;;;;;-1.57;82.97;101151.73;88914;1282;98397;-65
2022/02/24 05:08:00;;;;;;;22.10;9.20;;;;;;;-1.54;83.23;101153.46;88892;1282;88822;-76
2022/02/24 05:10:08;;;;;;;27.30;10.20;;;;;;;-1.56;82.89;101156.06;88909;1282;93872;-75
2022/02/24 05:12:13;;;;;;;21.70;8.70;;;;;;;-1.56;83.09;101157.29;88851;1283;79435;-74
2022/02/24 05:14:19;;;;;;;22.80;8.30;;;;;;;-1.55;82.94;101159.04;88900;1282;82821;-76
2022/02/24 05:16:28;;;;;;;24.90;8.70;;;;;;;-1.55;83.16;101160.07;88935;1282;98465;-76
2022/02/24 05:18:34;;;;;;;23.60;10.20;;;;;;;-1.56;83.07;101159.74;88918;1282;88206;-65
2022/02/24 05:20:40;;;;;;;24.40;9.60;;;;;;;-1.55;82.87;101161.47;88906;1282;94542;-64
2022/02/24 05:22:45;;;;;;;18.20;8.10;;;;;;;-1.59;83.00;101156.27;88948;1282;82178;-75
2022/02/24 05:24:51;;;;;;;21.30;9.30;;;;;;;-1.60;82.86;101158.66;88972;1282;83224;-75
2022/02/24 05:27:00;;;;;;;20.70;8.60;;;;;;;-1.63;82.86;101157.19;88941;1282;100101;-65
2022/02/24 05:29:06;;;;;;;23.40;8.70;;;;;;;-1.61;82.89;101156.23;88946;1282;87489;-65
2022/02/24 05:31:12;;;;;;;23.40;8.50;;;;;;;-1.63;83.03;101157.35;88920;1282;94131;-66
2022/02/24 05:33:16;;;;;;;22.80;9.40;;;;;;;-1.62;82.93;101158.38;88934;1282;78756;-65
2022/02/24 05:35:22;;;;;;;25.30;8.90;;;;;;;-1.64;83.00;101161.00;89370;1279;82121;-65
2022/02/24 05:37:32;;;;;;;20.50;8.30;;;;;;;-1.67;83.00;101159.74;89392;1279;97954;-67
2022/02/24 05:39:38;;;;;;;17.20;7.80;;;;;;;-1.72;82.95;101158.46;89421;1279;87834;-67
2022/02/24 05:41:47;;;;;;;19.30;8.40;;;;;;;-1.69;83.02;101156.91;89421;1279;92887;-67
2022/02/24 05:43:56;;;;;;;22.50;9.40;;;;;;;-1.68;83.08;101159.66;89446;1279;78812;-67
2022/02/24 05:46:05;;;;;;;22.00;8.60;;;;;;;-1.65;83.10;101161.91;89446;1279;83641;-67
2022/02/24 05:48:25;;;;;;;19.90;8.40;;;;;;;-1.63;83.10;101156.52;89440;1278;98241;-79
2022/02/24 05:50:30;;;;;;;20.80;8.50;;;;;;;-1.59;83.37;101156.29;89435;1279;87161;-76
2022/02/24 05:53:02;;;;;;;21.50;8.30;;;;;;;-1.54;83.13;101158.77;89452;1279;94550;-68
2022/02/24 05:55:14;;;;;;;24.90;8.90;;;;;;;-1.52;83.38;101160.23;89378;1270;79326;-76
2022/02/24 05:57:29;;;;;;;23.10;9.10;;;;;;;-1.45;83.39;101156.27;89369;1268;84750;-68
2022/02/24 05:59:39;;;;;;;20.10;8.20;;;;;;;-1.34;83.38;101154.89;89490;1274;100006;-66
2022/02/24 06:01:49;;;;;;;22.80;9.10;;;;;;;-1.25;83.31;101155.55;89085;1269;91689;-68
2022/02/24 06:04:07;;;;;;;18.20;8.10;;;;;;;-1.20;83.60;101155.73;89351;1279;95200;-66
2022/02/24 06:06:45;;;;;;;20.70;9.20;;;;;;;-1.10;83.45;101154.10;89431;1269;81008;-67
2022/02/24 06:08:50;;;;;;;21.40;7.40;;;;;;;-1.00;83.70;101157.46;89435;1277;81292;-68
2022/02/24 06:10:59;;;;;;;23.10;10.00;;;;;;;-0.91;83.50;101157.07;89441;1269;97594;-77
2022/02/24 06:13:18;;;;;;;18.00;8.10;;;;;;;-0.89;83.47;101161.15;89491;1277;88424;-77
2022/02/24 06:15:30;;;;;;;22.60;8.70;;;;;;;-0.85;83.47;101163.06;89466;1277;94408;-65
2022/02/24 06:17:49;;;;;;;21.80;9.00;;;;;;;-0.81;83.50;101164.52;89417;1279;80336;-69
2022/02/24 06:20:07;;;;;;;18.90;8.50;;;;;;;-0.75;83.44;101160.77;89303;1279;80753;-81
2022/02/24 06:22:15;;;;;;;22.70;8.80;;;;;;;-0.67;83.46;101160.45;89304;1273;99712;-77
2022/02/24 06:24:22;;;;;;;26.60;8.50;;;;;;;-0.48;83.53;101162.23;89357;1279;88423;-69
2022/02/24 06:26:44;;;;;;;20.20;8.20;;;;;;;0.22;83.89;101162.44;89448;1279;95703;-68
2022/02/24 06:28:50;;;;;;;20.30;7.90;;;;;;;0.83;83.50;101164.15;89360;1279;81602;-69
2022/02/24 06:30:59;;;;;;;17.90;8.20;;;;;;;0.98;83.04;101165.51;89420;1279;83149;-68
2022/02/24 06:33:06;;;;;;;18.00;8.40;;;;;;;1.23;83.10;101164.95;89495;1278;97565;-67
2022/02/24 06:35:13;;;;;;;22.70;9.00;;;;;;;1.34;82.76;101167.20;89496;1277;89417;-67
2022/02/24 06:37:18;;;;;;;22.30;9.40;;;;;;;1.39;82.74;101165.59;89347;1279;95779;-67
2022/02/24 06:39:24;;;;;;;22.30;9.40;;;;;;;1.87;83.05;101163.16;89487;1277;79267;-72
2022/02/24 06:41:30;;;;;;;23.30;8.60;;;;;;;2.32;82.87;101155.49;89446;1279;82060;-73
2022/02/24 06:43:36;;;;;;;24.60;9.00;;;;;;;2.48;82.61;101159.23;89473;1278;98376;-74
2022/02/24 06:45:42;;;;;;;24.80;9.60;;;;;;;2.75;82.48;101159.17;89478;1277;89866;-75
2022/02/24 06:47:48;;;;;;;25.40;8.90;;;;;;;2.96;82.23;101156.41;89476;1277;93904;-68
2022/02/24 06:49:54;;;;;;;19.30;9.60;;;;;;;2.89;81.68;101161.07;89458;1276;79168;-66
2022/02/24 06:52:02;;;;;;;23.20;9.40;;;;;;;2.92;81.43;101154.94;89423;1279;81550;-66
2022/02/24 06:54:08;;;;;;;22.70;9.90;;;;;;;3.17;81.31;101153.00;89410;1277;98152;-65
2022/02/24 06:56:18;;;;;;;24.40;9.50;;;;;;;3.45;81.00;101147.77;89494;1277;87805;-65
2022/02/24 06:58:25;;;;;;;22.50;9.90;;;;;;;3.83;80.91;101147.48;89490;1277;95746;-76
2022/02/24 07:00:31;;;;;;;22.50;9.70;;;;;;;3.97;80.47;101147.52;89477;1277;78821;-75
2022/02/24 07:02:37;;;;;;;25.40;10.40;;;;;;;3.98;80.37;101147.48;89433;1279;80599;-69
2022/02/24 07:04:45;;;;;;;25.70;10.90;;;;;;;4.34;80.83;101143.26;89489;1278;99144;-69
2022/02/24 07:06:51;;;;;;;28.70;11.20;;;;;;;5.36;80.78;101142.58;89192;1281;88838;-69
2022/02/24 07:08:58;;;;;;;25.70;10.90;;;;;;;5.81;80.05;101137.07;89431;1279;94661;-76
2022/02/24 07:11:04;;;;;;;24.80;10.80;;;;;;;6.21;79.14;101130.44;89478;1277;76696;-77
2022/02/24 07:13:09;;;;;;;21.00;10.90;;;;;;;6.23;78.27;101128.86;89507;1278;83631;-68
2022/02/24 07:15:18;;;;;;;26.70;11.30;;;;;;;6.57;78.22;101129.52;89490;1278;98612;-77
2022/02/24 07:17:24;;;;;;;23.90;10.90;;;;;;;6.82;77.23;101124.73;89503;1277;88065;-79
2022/02/24 07:19:34;;;;;;;22.60;10.70;;;;;;;6.82;77.25;101120.48;89409;1279;95420;-79
2022/02/24 07:21:43;;;;;;;23.50;10.70;;;;;;;7.29;76.54;101118.90;89494;1278;77900;-79
2022/02/24 07:23:52;;;;;;;25.30;11.00;;;;;;;7.40;76.08;101114.70;89440;1279;84483;-82
2022/02/24 07:26:01;;;;;;;25.40;11.00;;;;;;;7.83;76.12;101114.89;89479;1278;98932;-77
2022/02/24 07:28:09;;;;;;;24.50;10.50;;;;;;;8.56;76.06;101114.65;89495;1277;87256;-78
2022/02/24 07:30:18;;;;;;;22.60;10.80;;;;;;;9.45;75.78;101112.95;89483;1277;93767;-80
2022/02/24 07:32:27;;;;;;;26.70;11.10;;;;;;;9.99;74.59;101109.14;89499;1277;80994;-78
2022/02/24 07:34:33;;;;;;;21.60;11.50;;;;;;;10.41;73.20;101107.25;89509;1277;82537;-78
2022/02/24 07:36:40;;;;;;;21.80;11.60;;;;;;;10.74;72.50;101113.73;89492;1277;100267;-66
2022/02/24 07:38:49;;;;;;;23.50;12.10;;;;;;;10.92;72.21;101109.75;89498;1277;88029;-64
2022/02/24 07:40:55;;;;;;;22.40;10.20;;;;;;;11.36;71.20;101111.91;89477;1277;95493;-64
2022/02/24 07:43:03;;;;;;;22.50;10.60;;;;;;;11.90;69.91;101108.62;89174;1280;81360;-65
2022/02/24 07:45:13;;;;;;;20.90;10.50;;;;;;;12.42;68.75;101106.33;89437;1278;82271;-65
2022/02/24 07:47:21;;;;;;;25.40;10.70;;;;;;;12.96;68.49;101109.88;89171;1280;100324;-81
2022/02/24 07:49:28;;;;;;;19.70;9.70;;;;;;;13.69;66.96;101109.98;89485;1278;87846;-80
2022/02/24 07:51:37;;;;;;;19.40;10.20;;;;;;;14.62;66.32;101105.70;89420;1279;94302;-81
2022/02/24 07:53:46;;;;;;;20.00;10.50;;;;;;;15.62;64.87;101100.84;89454;1278;80797;-81
2022/02/24 07:55:52;;;;;;;18.90;9.20;;;;;;;16.31;63.09;101093.41;89500;1278;82095;-81
2022/02/24 07:57:58;;;;;;;18.20;9.90;;;;;;;16.85;62.05;101093.77;89499;1278;98546;-81
2022/02/24 08:00:05;;;;;;;18.60;9.60;;;;;;;17.47;61.92;101089.78;89496;1278;87251;-81
2022/02/24 08:02:14;;;;;;;18.70;9.90;;;;;;;18.07;61.46;101083.01;89493;1277;93946;-64
2022/02/24 08:04:19;;;;;;;18.80;9.20;;;;;;;18.43;59.37;101076.76;89473;1278;81006;-65
2022/02/24 08:06:25;;;;;;;17.20;8.70;;;;;;;18.67;58.47;101075.55;89436;1279;81219;-77
2022/02/24 08:08:34;;;;;;;18.40;9.10;;;;;;;18.88;56.61;101073.34;89412;1279;100189;-78
2022/02/24 08:10:40;;;;;;;14.60;8.90;;;;;;;19.30;56.44;101071.83;89403;1279;89346;-65
2022/02/24 08:12:47;;;;;;;17.10;8.50;;;;;;;19.48;55.03;101069.40;89494;1280;96175;-65
2022/02/24 08:14:56;;;;;;;15.90;8.70;;;;;;;19.78;53.82;101066.73;89398;1279;78364;-65
2022/02/24 08:17:02;;;;;;;16.90;9.00;;;;;;;19.93;51.86;101066.86;89481;1277;83493;-65
2022/02/24 08:19:10;;;;;;;15.90;8.70;;;;;;;19.84;52.51;101066.83;89420;1279;97711;-65
2022/02/24 08:21:16;;;;;;;13.70;8.30;;;;;;;20.05;52.56;101064.48;89465;1277;89281;-65
2022/02/24 08:23:21;;;;;;;15.10;7.80;;;;;;;20.16;51.80;101061.77;89463;1278;95275;-65
2022/02/24 08:25:31;;;;;;;15.40;7.80;;;;;;;20.00;49.59;101061.89;89416;1277;80827;-65
2022/02/24 08:27:37;;;;;;;15.90;8.30;;;;;;;20.11;47.78;101057.55;89475;1278;82842;-82
2022/02/24 08:29:43;;;;;;;14.90;8.40;;;;;;;20.35;48.65;101048.52;89491;1278;98558;-80
2022/02/24 08:31:48;;;;;;;11.70;7.40;;;;;;;20.58;48.88;101047.71;89429;1279;89611;-63
2022/02/24 08:33:57;;;;;;;14.80;7.40;;;;;;;20.98;47.51;101052.25;89473;1278;95750;-65
2022/02/24 08:36:03;;;;;;;15.70;8.30;;;;;;;20.99;45.62;101046.10;89470;1278;81020;-64
2022/02/24 08:38:09;;;;;;;19.00;7.60;;;;;;;21.06;46.95;101044.39;89439;1279;81833;-64
2022/02/24 08:40:17;;;;;;;14.80;8.00;;;;;;;21.13;46.42;101043.59;89444;1279;100334;-64
2022/02/24 08:42:25;;;;;;;12.00;7.00;;;;;;;20.92;45.82;101035.74;89479;1277;88865;-64
2022/02/24 08:44:34;;;;;;;16.50;7.30;;;;;;;21.18;45.26;101033.69;89466;1278;94789;-64
2022/02/24 08:46:39;;;;;;;13.20;7.00;;;;;;;21.11;45.54;101032.20;89415;1279;79484;-79
2022/02/24 08:48:45;;;;;;;13.10;7.10;;;;;;;21.13;44.61;101028.90;89512;1278;80693;-81
2022/02/24 08:50:51;;;;;;;13.40;6.50;;;;;;;20.78;41.04;101025.32;89418;1279;98564;-81
2022/02/24 08:52:57;;;;;;;13.70;6.30;;;;;;;20.17;38.56;101019.16;89504;1278;88777;-81
2022/02/24 08:55:03;;;;;;;13.50;6.10;;;;;;;19.77;40.27;101021.30;89501;1278;93695;-80
2022/02/24 08:57:09;;;;;;;11.80;6.40;;;;;;;19.76;41.66;101021.98;89458;1277;79816;-80
2022/02/24 08:59:15;;;;;;;13.80;6.90;;;;;;;19.44;39.31;101020.10;89479;1278;81122;-80
2022/02/24 09:01:21;;;;;;;14.00;6.30;;;;;;;19.49;40.54;101017.48;89514;1278;98539;-64
2022/02/24 09:03:27;;;;;;;11.40;6.10;;;;;;;19.69;39.85;101018.02;89487;1277;89920;-81
2022/02/24 09:05:34;;;;;;;14.70;6.30;;;;;;;19.84;40.84;101016.32;89411;1279;95414;-81
2022/02/24 09:07:41;;;;;;;10.90;6.10;;;;;;;20.26;41.18;101014.92;89475;1278;81511;-80
2022/02/24 09:09:50;;;;;;;14.10;6.50;;;;;;;20.45;39.86;101006.73;89511;1278;80110;-81
2022/02/24 09:11:59;;;;;;;14.30;6.20;;;;;;;20.15;39.97;101004.75;89418;1279;98430;-64
2022/02/24 09:14:05;;;;;;;11.30;5.60;;;;;;;19.84;40.51;101003.70;89474;1278;89274;-64
2022/02/24 09:16:12;;;;;;;11.30;6.30;;;;;;;19.68;41.86;101001.35;89484;1278;94779;-64
2022/02/24 09:18:21;;;;;;;13.20;6.30;;;;;;;20.14;41.68;100992.83;89448;1278;78434;-64
2022/02/24 09:20:27;;;;;;;11.40;5.50;;;;;;;20.35;40.11;100986.45;89490;1278;83309;-64
2022/02/24 09:22:33;;;;;;;11.30;6.10;;;;;;;20.47;39.95;100983.22;89421;1279;99251;-64
2022/02/24 09:24:42;;;;;;;11.90;6.10;;;;;;;20.48;40.28;100981.71;89330;1279;89486;-67
2022/02/24 09:26:48;;;;;;;12.70;6.70;;;;;;;20.42;39.75;100975.24;89451;1278;95055;-64
2022/02/24 09:28:56;;;;;;;10.30;5.80;;;;;;;20.50;40.68;100971.15;89474;1277;79815;-64
2022/02/24 09:31:06;;;;;;;10.80;6.50;;;;;;;20.56;39.81;100965.42;89446;1279;82509;-64
2022/02/24 09:33:14;;;;;;;11.40;6.60;;;;;;;20.48;38.87;100958.37;89499;1278;99034;-64
2022/02/24 09:35:21;;;;;;;9.90;5.70;;;;;;;20.50;40.25;100958.97;89468;1279;87807;-64
2022/02/24 09:37:34;;;;;;;12.20;6.20;;;;;;;20.00;40.04;100956.73;89431;1278;94558;-79
2022/02/24 09:39:43;;;;;;;13.50;6.80;;;;;;;19.98;39.54;100953.56;89461;1280;80095;-79
2022/02/24 09:41:48;;;;;;;12.70;6.50;;;;;;;19.95;39.95;100944.76;89473;1278;80629;-81
2022/02/24 09:43:55;;;;;;;11.50;6.10;;;;;;;20.16;40.16;100941.52;89499;1277;99082;-80
2022/02/24 09:46:07;;;;;;;13.70;6.80;;;;;;;20.20;39.62;100939.76;89502;1277;89326;-80